createdAt,value
2022-08-17T00:00:14.681Z,5.80
2022-08-17T00:05:38.558Z,5.83
2022-08-17T00:10:43.926Z,6.13
2022-08-17T00:15:46.487Z,6.10
2022-08-17T00:20:48.744Z,6.23
2022-08-17T00:25:53.022Z,6.33
2022-08-17T00:30:55.300Z,6.07
2022-08-17T00:35:59.345Z,5.70
2022-08-17T00:41:06.997Z,5.40
2022-08-17T00:46:12.809Z,5.40
2022-08-17T00:51:23.260Z,5.90
2022-08-17T00:56:32.064Z,5.80
2022-08-17T01:01:34.058Z,6.13
2022-08-17T01:06:36.339Z,6.53
2022-08-17T01:11:40.383Z,6.43
2022-08-17T01:16:42.288Z,6.57
2022-08-17T01:21:49.531Z,6.57
2022-08-17T01:26:53.154Z,6.00
2022-08-17T01:32:01.862Z,5.77
2022-08-17T01:37:03.969Z,6.30
2022-08-17T01:42:13.048Z,6.60
2022-08-17T01:47:15.898Z,6.27
2022-08-17T01:52:18.595Z,6.37
2022-08-17T01:57:21.662Z,6.50
2022-08-17T02:02:31.366Z,6.30
2022-08-17T02:07:56.015Z,5.60
2022-08-17T02:12:57.469Z,5.73
2022-08-17T02:17:59.445Z,6.23
2022-08-17T02:23:03.580Z,5.63
2022-08-17T02:28:10.174Z,5.57
2022-08-17T02:33:12.298Z,6.20
2022-08-17T02:38:14.609Z,5.57
2022-08-17T02:43:18.153Z,6.57
2022-08-17T02:48:30.732Z,6.30
2022-08-17T02:53:35.920Z,5.70
2022-08-17T02:58:39.649Z,6.10
2022-08-17T03:03:42.043Z,5.70
2022-08-17T03:08:44.062Z,6.50
2022-08-17T03:13:47.639Z,5.93
2022-08-17T03:18:49.776Z,6.53
2022-08-17T03:23:54.306Z,6.80
2022-08-17T03:28:58.133Z,5.90
2022-08-17T03:34:00.119Z,6.50
2022-08-17T03:39:02.154Z,6.30
2022-08-17T03:44:05.768Z,6.20
2022-08-17T03:49:09.213Z,6.73
2022-08-17T03:54:12.148Z,6.63
2022-08-17T03:59:21.231Z,6.30
2022-08-17T04:04:28.071Z,6.17
2022-08-17T04:09:29.879Z,6.67
2022-08-17T04:14:34.458Z,6.50
2022-08-17T04:19:36.389Z,6.67
2022-08-17T04:24:38.589Z,7.67
2022-08-17T04:29:50.073Z,6.73
2022-08-17T04:34:57.837Z,7.13
2022-08-17T04:40:03.921Z,7.03
2022-08-17T04:45:08.727Z,6.90
2022-08-17T04:50:10.765Z,6.57
2022-08-17T04:55:13.120Z,8.27
2022-08-17T05:00:16.868Z,6.57
2022-08-17T05:05:19.955Z,6.13
2022-08-17T05:10:24.264Z,7.10
2022-08-17T05:15:33.139Z,5.77
2022-08-17T05:20:39.809Z,6.03
2022-08-17T05:25:47.458Z,4.68
2022-08-17T05:30:51.510Z,5.25
2022-08-17T05:35:57.319Z,4.28
2022-08-17T05:41:01.863Z,5.00
2022-08-17T05:46:11.059Z,5.43
2022-08-17T05:51:27.965Z,4.63
2022-08-17T05:56:49.599Z,5.32
2022-08-17T06:02:03.013Z,4.50
2022-08-17T06:07:10.056Z,5.38
2022-08-17T06:12:34.500Z,4.70
2022-08-17T06:17:38.567Z,4.78
2022-08-17T06:22:45.005Z,5.97
2022-08-17T06:27:53.707Z,5.60
2022-08-17T06:33:03.029Z,5.25
2022-08-17T06:38:17.286Z,4.68
2022-08-17T06:43:51.068Z,4.63
2022-08-17T06:49:05.575Z,4.90
2022-08-17T06:54:15.584Z,5.40
2022-08-17T06:59:22.353Z,4.82
2022-08-17T07:04:30.174Z,4.30
2022-08-17T07:09:36.162Z,4.28
2022-08-17T07:14:43.062Z,3.80
2022-08-17T07:19:49.353Z,4.13
2022-08-17T07:24:53.887Z,4.00
2022-08-17T07:30:03.735Z,3.72
2022-08-17T07:35:18.051Z,3.83
2022-08-17T07:40:29.452Z,3.72
2022-08-17T07:45:32.376Z,3.50
2022-08-17T07:50:35.811Z,3.75
2022-08-17T07:55:39.343Z,3.13
2022-08-17T08:00:41.539Z,2.97
2022-08-17T08:05:54.363Z,3.05
2022-08-17T08:11:06.978Z,3.17
2022-08-17T08:16:23.265Z,2.95
2022-08-17T08:21:49.161Z,3.10
2022-08-17T08:26:59.505Z,3.22
2022-08-17T08:32:11.797Z,2.95
2022-08-17T08:37:33.688Z,2.92
2022-08-17T08:42:45.738Z,3.05
2022-08-17T08:48:57.034Z,2.92
2022-08-17T08:53:42.762Z,2.63
2022-08-17T08:58:51.381Z,2.97
2022-08-17T09:04:24.839Z,2.60
2022-08-17T09:09:39.093Z,2.00
2022-08-17T09:14:51.015Z,2.83
2022-08-17T09:19:59.730Z,2.75
2022-08-17T09:25:09.191Z,3.40
2022-08-17T09:30:11.830Z,2.78
2022-08-17T09:35:16.836Z,2.65
2022-08-17T09:40:24.665Z,2.15
2022-08-17T09:45:33.925Z,2.55
2022-08-17T09:51:04.929Z,2.40
2022-08-17T09:56:30.270Z,2.50
2022-08-17T10:01:37.721Z,2.67
2022-08-17T10:06:51.176Z,2.65
2022-08-17T10:12:01.497Z,2.38
2022-08-17T10:17:12.013Z,2.35
2022-08-17T10:22:34.812Z,2.50
2022-08-17T10:27:43.113Z,2.38
2022-08-17T10:32:49.992Z,2.20
2022-08-17T10:38:17.710Z,2.40
2022-08-17T10:43:33.612Z,2.50
2022-08-17T10:48:37.657Z,2.60
2022-08-17T10:53:53.669Z,2.50
2022-08-17T10:58:58.447Z,2.28
2022-08-17T11:04:19.044Z,2.38
2022-08-17T11:09:34.315Z,2.45
2022-08-17T11:14:49.878Z,2.42
2022-08-17T11:20:07.646Z,2.50
2022-08-17T11:25:14.922Z,2.60
2022-08-17T11:30:41.710Z,2.42
2022-08-17T11:35:51.412Z,2.65
2022-08-17T11:41:17.543Z,2.25
2022-08-17T11:46:31.279Z,2.40
2022-08-17T11:52:30.315Z,2.20
2022-08-17T11:58:25.393Z,2.70
2022-08-17T12:03:54.491Z,3.15
2022-08-17T12:09:05.496Z,2.50
2022-08-17T12:14:10.758Z,2.83
2022-08-17T12:19:20.383Z,2.70
2022-08-17T12:24:36.283Z,2.42
2022-08-17T12:29:42.900Z,2.88
2022-08-17T12:34:47.614Z,2.70
2022-08-17T12:39:57.153Z,2.58
2022-08-17T12:44:59.511Z,2.65
2022-08-17T12:50:29.014Z,2.35
2022-08-17T12:55:36.308Z,2.60
2022-08-17T13:00:40.248Z,2.88
2022-08-17T13:05:56.089Z,2.90
2022-08-17T13:11:00.431Z,2.60
2022-08-17T13:16:05.906Z,2.67
2022-08-17T13:21:24.569Z,2.20
2022-08-17T13:26:32.381Z,2.45
2022-08-17T13:31:51.800Z,2.42
2022-08-17T13:37:18.066Z,2.67
2022-08-17T13:42:34.382Z,2.60
2022-08-17T13:48:08.126Z,2.45
2022-08-17T13:53:23.442Z,2.30
2022-08-17T13:58:27.466Z,2.30
2022-08-17T14:03:29.233Z,2.42
2022-08-17T14:08:32.410Z,2.70
2022-08-17T14:13:34.199Z,2.58
2022-08-17T14:18:57.092Z,2.30
2022-08-17T14:24:00.410Z,2.60
2022-08-17T14:29:02.163Z,1.95
2022-08-17T14:34:03.958Z,2.70
2022-08-17T14:39:07.604Z,2.47
2022-08-17T14:44:09.752Z,2.67
2022-08-17T14:49:13.440Z,2.58
2022-08-17T14:54:33.693Z,2.33
2022-08-17T14:59:36.282Z,2.50
2022-08-17T15:04:41.872Z,2.58
2022-08-17T15:09:48.407Z,2.08
2022-08-17T15:14:50.286Z,2.45
2022-08-17T15:19:52.043Z,2.35
2022-08-17T15:24:55.718Z,2.30
2022-08-17T15:29:57.669Z,2.50
2022-08-17T15:35:01.725Z,2.42
2022-08-17T15:40:06.681Z,2.95
2022-08-17T15:45:11.003Z,2.67
2022-08-17T15:50:13.010Z,3.25
2022-08-17T15:55:18.702Z,3.00
2022-08-17T16:00:22.679Z,2.60
2022-08-17T16:05:25.261Z,2.90
2022-08-17T16:10:35.644Z,2.67
2022-08-17T16:15:37.823Z,2.72
2022-08-17T16:20:39.597Z,2.97
2022-08-17T16:25:53.830Z,2.75
2022-08-17T16:30:56.130Z,3.00
2022-08-17T16:35:58.252Z,4.32
2022-08-17T16:41:02.420Z,2.53
2022-08-17T16:46:04.402Z,3.05
2022-08-17T16:51:07.015Z,3.10
2022-08-17T16:56:10.132Z,2.47
2022-08-17T17:01:12.708Z,2.47
2022-08-17T17:06:18.690Z,2.25
2022-08-17T17:11:29.020Z,2.50
2022-08-17T17:16:37.005Z,2.78
2022-08-17T17:21:46.754Z,3.03
2022-08-17T17:27:08.290Z,2.60
2022-08-17T17:32:17.707Z,3.10
2022-08-17T17:37:24.565Z,2.80
2022-08-17T17:42:30.926Z,2.95
2022-08-17T17:47:33.142Z,2.72
2022-08-17T17:52:44.645Z,2.80
2022-08-17T17:57:57.634Z,2.75
2022-08-17T18:03:19.229Z,3.03
2022-08-17T18:08:38.340Z,3.00
2022-08-17T18:13:54.935Z,2.70
2022-08-17T18:18:56.695Z,2.58
2022-08-17T18:24:00.781Z,3.13
2022-08-17T18:29:15.143Z,3.92
2022-08-17T18:34:43.708Z,3.90
2022-08-17T18:39:41.703Z,3.33
2022-08-17T18:44:49.607Z,3.50
2022-08-17T18:49:56.490Z,5.72
2022-08-17T18:55:06.132Z,3.70
2022-08-17T19:00:15.335Z,4.47
2022-08-17T19:05:29.366Z,3.65
2022-08-17T19:10:46.464Z,4.20
2022-08-17T19:16:14.443Z,3.40
2022-08-17T19:21:21.592Z,3.47
2022-08-17T19:26:54.199Z,3.22
2022-08-17T19:31:52.669Z,3.25
2022-08-17T19:37:00.885Z,3.95
2022-08-17T19:42:11.401Z,3.78
2022-08-17T19:47:43.782Z,6.55
2022-08-17T19:52:55.138Z,5.80
2022-08-17T19:58:05.789Z,4.53
2022-08-17T20:03:16.823Z,5.35
2022-08-17T20:08:25.796Z,4.55
2022-08-17T20:13:34.259Z,4.43
2022-08-17T20:18:49.660Z,3.80
2022-08-17T20:23:53.798Z,4.60
2022-08-17T20:29:19.682Z,4.30
2022-08-17T20:34:46.207Z,6.28
2022-08-17T20:40:19.578Z,5.05
2022-08-17T20:46:13.693Z,4.20
2022-08-17T20:51:23.298Z,4.30
2022-08-17T20:56:55.438Z,4.30
2022-08-17T21:02:18.202Z,4.07
2022-08-17T21:07:29.120Z,4.55
2022-08-17T21:12:43.414Z,4.38
2022-08-17T21:17:50.382Z,4.88
2022-08-17T21:23:11.881Z,4.75
2022-08-17T21:28:30.070Z,4.18
2022-08-17T21:33:38.389Z,4.40
2022-08-17T21:38:56.996Z,4.57
2022-08-17T21:44:05.648Z,4.40
2022-08-17T21:49:13.964Z,5.03
2022-08-17T21:54:29.106Z,5.60
2022-08-17T21:59:33.779Z,4.90
2022-08-17T22:04:38.946Z,4.63
2022-08-17T22:09:44.356Z,5.40
2022-08-17T22:14:58.339Z,4.78
2022-08-17T22:20:06.010Z,5.47
2022-08-17T22:25:20.578Z,4.95
2022-08-17T22:30:32.428Z,5.18
2022-08-17T22:35:37.358Z,4.65
2022-08-17T22:40:41.109Z,4.88
2022-08-17T22:45:46.054Z,5.22
2022-08-17T22:50:49.725Z,5.13
2022-08-17T22:55:55.500Z,5.28
2022-08-17T23:01:22.596Z,5.13
2022-08-17T23:06:25.939Z,4.80
2022-08-17T23:11:36.688Z,5.22
2022-08-17T23:16:51.646Z,4.85
2022-08-17T23:21:54.722Z,5.32
2022-08-17T23:26:57.953Z,5.38
2022-08-17T23:32:01.139Z,4.90
2022-08-17T23:37:03.193Z,5.38
2022-08-17T23:42:10.706Z,5.60
2022-08-17T23:47:12.479Z,5.78
2022-08-17T23:52:16.369Z,5.45
2022-08-17T23:57:33.864Z,5.50
